sensor_id;sensor_type;location;lat;lon;timestamp;pressure;altitude;pressure_sealevel;temperature;humidity
79174;BME280;68599;49.142;9.124;2023-11-18T00:01:41;100621.38;;;7.75;77.24
79174;BME280;68599;49.142;9.124;2023-11-18T00:04:09;100620.27;;;7.72;77.29
79174;BME280;68599;49.142;9.124;2023-11-18T00:06:42;100620.27;;;7.72;77.39
79174;BME280;68599;49.142;9.124;2023-11-18T00:09:13;100618.83;;;7.71;77.36
79174;BME280;68599;49.142;9.124;2023-11-18T00:11:41;100622.42;;;7.72;77.52
79174;BME280;68599;49.142;9.124;2023-11-18T00:14:11;100621.72;;;7.74;77.64
79174;BME280;68599;49.142;9.124;2023-11-18T00:16:38;100618.89;;;7.76;77.38
79174;BME280;68599;49.142;9.124;2023-11-18T00:19:05;100617.66;;;7.80;77.26
79174;BME280;68599;49.142;9.124;2023-11-18T00:21:32;100614.05;;;7.79;77.24
79174;BME280;68599;49.142;9.124;2023-11-18T00:23:59;100621.59;;;7.79;76.92
79174;BME280;68599;49.142;9.124;2023-11-18T00:26:25;100616.86;;;7.73;77.12
79174;BME280;68599;49.142;9.124;2023-11-18T00:28:52;100617.75;;;7.70;77.20
79174;BME280;68599;49.142;9.124;2023-11-18T00:31:19;100617.05;;;7.73;77.35
79174;BME280;68599;49.142;9.124;2023-11-18T00:33:46;100617.58;;;7.73;77.20
79174;BME280;68599;49.142;9.124;2023-11-18T00:36:13;100615.73;;;7.67;77.32
79174;BME280;68599;49.142;9.124;2023-11-18T00:38:39;100611.82;;;7.70;77.53
79174;BME280;68599;49.142;9.124;2023-11-18T00:41:06;100609.33;;;7.72;77.46
79174;BME280;68599;49.142;9.124;2023-11-18T00:43:33;100608.25;;;7.72;77.54
79174;BME280;68599;49.142;9.124;2023-11-18T00:46:00;100607.61;;;7.81;77.20
79174;BME280;68599;49.142;9.124;2023-11-18T00:48:27;100603.48;;;7.81;77.28
79174;BME280;68599;49.142;9.124;2023-11-18T00:50:54;100606.91;;;7.82;77.04
79174;BME280;68599;49.142;9.124;2023-11-18T00:53:22;100607.05;;;7.79;76.99
79174;BME280;68599;49.142;9.124;2023-11-18T00:55:49;100603.59;;;7.74;77.22
79174;BME280;68599;49.142;9.124;2023-11-18T00:58:16;100607.70;;;7.71;77.43
79174;BME280;68599;49.142;9.124;2023-11-18T01:00:42;100609.05;;;7.81;76.93
79174;BME280;68599;49.142;9.124;2023-11-18T01:03:09;100612.00;;;7.70;77.30
79174;BME280;68599;49.142;9.124;2023-11-18T01:05:37;100618.27;;;7.69;77.46
79174;BME280;68599;49.142;9.124;2023-11-18T01:08:04;100620.64;;;7.74;77.22
79174;BME280;68599;49.142;9.124;2023-11-18T01:10:32;100620.05;;;7.69;77.59
79174;BME280;68599;49.142;9.124;2023-11-18T01:12:58;100623.48;;;7.72;77.42
79174;BME280;68599;49.142;9.124;2023-11-18T01:15:25;100627.86;;;7.78;77.19
79174;BME280;68599;49.142;9.124;2023-11-18T01:17:52;100618.84;;;7.72;77.27
79174;BME280;68599;49.142;9.124;2023-11-18T01:20:18;100622.95;;;7.72;77.43
79174;BME280;68599;49.142;9.124;2023-11-18T01:22:49;100626.52;;;7.71;77.59
79174;BME280;68599;49.142;9.124;2023-11-18T01:25:16;100628.84;;;7.70;77.45
79174;BME280;68599;49.142;9.124;2023-11-18T01:27:45;100636.78;;;7.73;77.63
79174;BME280;68599;49.142;9.124;2023-11-18T01:30:15;100635.34;;;7.72;77.53
79174;BME280;68599;49.142;9.124;2023-11-18T01:32:42;100634.80;;;7.73;77.65
79174;BME280;68599;49.142;9.124;2023-11-18T01:35:09;100638.08;;;7.77;77.51
79174;BME280;68599;49.142;9.124;2023-11-18T01:37:39;100639.51;;;7.77;77.61
79174;BME280;68599;49.142;9.124;2023-11-18T01:40:07;100641.85;;;7.78;77.62
79174;BME280;68599;49.142;9.124;2023-11-18T01:42:34;100640.41;;;7.77;77.68
79174;BME280;68599;49.142;9.124;2023-11-18T01:45:01;100640.23;;;7.76;77.49
79174;BME280;68599;49.142;9.124;2023-11-18T01:47:33;100638.39;;;7.73;77.69
79174;BME280;68599;49.142;9.124;2023-11-18T01:50:01;100638.38;;;7.72;77.74
79174;BME280;68599;49.142;9.124;2023-11-18T01:52:29;100639.50;;;7.76;77.82
79174;BME280;68599;49.142;9.124;2023-11-18T01:54:58;100638.65;;;7.81;77.84
79174;BME280;68599;49.142;9.124;2023-11-18T01:57:26;100635.80;;;7.83;77.71
79174;BME280;68599;49.142;9.124;2023-11-18T01:59:54;100635.44;;;7.83;77.75
79174;BME280;68599;49.142;9.124;2023-11-18T02:02:21;100635.42;;;7.81;77.73
79174;BME280;68599;49.142;9.124;2023-11-18T02:04:48;100640.14;;;7.87;77.67
79174;BME280;68599;49.142;9.124;2023-11-18T02:07:16;100643.09;;;7.95;77.23
79174;BME280;68599;49.142;9.124;2023-11-18T02:09:44;100642.16;;;7.91;77.21
79174;BME280;68599;49.142;9.124;2023-11-18T02:12:31;100640.41;;;7.95;77.26
79174;BME280;68599;49.142;9.124;2023-11-18T02:15:04;100644.36;;;7.96;77.05
79174;BME280;68599;49.142;9.124;2023-11-18T02:17:40;100642.70;;;7.93;77.09
79174;BME280;68599;49.142;9.124;2023-11-18T02:20:10;100642.86;;;7.89;77.23
79174;BME280;68599;49.142;9.124;2023-11-18T02:22:43;100643.08;;;7.92;77.04
79174;BME280;68599;49.142;9.124;2023-11-18T02:25:15;100646.11;;;7.91;77.17
79174;BME280;68599;49.142;9.124;2023-11-18T02:27:43;100641.85;;;7.95;77.12
79174;BME280;68599;49.142;9.124;2023-11-18T02:30:12;100646.33;;;7.95;77.27
79174;BME280;68599;49.142;9.124;2023-11-18T02:33:40;100644.17;;;7.94;77.30
79174;BME280;68599;49.142;9.124;2023-11-18T02:35:51;100645.81;;;7.98;77.35
79174;BME280;68599;49.142;9.124;2023-11-18T02:38:23;100649.27;;;8.01;77.35
79174;BME280;68599;49.142;9.124;2023-11-18T02:40:57;100653.06;;;8.05;77.08
79174;BME280;68599;49.142;9.124;2023-11-18T02:43:26;100650.20;;;8.06;77.05
79174;BME280;68599;49.142;9.124;2023-11-18T02:45:56;100650.73;;;8.05;77.01
79174;BME280;68599;49.142;9.124;2023-11-18T02:48:26;100646.42;;;8.07;76.94
79174;BME280;68599;49.142;9.124;2023-11-18T02:50:54;100643.20;;;8.06;76.85
79174;BME280;68599;49.142;9.124;2023-11-18T02:53:20;100642.27;;;8.02;76.87
79174;BME280;68599;49.142;9.124;2023-11-18T02:55:47;100644.41;;;8.01;76.98
79174;BME280;68599;49.142;9.124;2023-11-18T02:58:14;100639.56;;;8.00;76.91
79174;BME280;68599;49.142;9.124;2023-11-18T03:00:40;100638.16;;;8.03;77.05
79174;BME280;68599;49.142;9.124;2023-11-18T03:03:07;100638.30;;;8.01;76.98
79174;BME280;68599;49.142;9.124;2023-11-18T03:05:34;100635.08;;;8.00;77.03
79174;BME280;68599;49.142;9.124;2023-11-18T03:08:03;100635.81;;;8.03;77.15
79174;BME280;68599;49.142;9.124;2023-11-18T03:10:32;100636.02;;;8.05;76.99
79174;BME280;68599;49.142;9.124;2023-11-18T03:13:01;100639.11;;;8.11;76.95
79174;BME280;68599;49.142;9.124;2023-11-18T03:15:28;100642.17;;;8.12;76.81
79174;BME280;68599;49.142;9.124;2023-11-18T03:17:55;100643.84;;;8.17;76.69
79174;BME280;68599;49.142;9.124;2023-11-18T03:20:23;100647.44;;;8.19;76.56
79174;BME280;68599;49.142;9.124;2023-11-18T03:22:50;100645.11;;;8.18;76.65
79174;BME280;68599;49.142;9.124;2023-11-18T03:25:18;100646.05;;;8.24;76.58
79174;BME280;68599;49.142;9.124;2023-11-18T03:27:48;100640.11;;;8.21;76.41
79174;BME280;68599;49.142;9.124;2023-11-18T03:30:15;100637.41;;;8.21;76.29
79174;BME280;68599;49.142;9.124;2023-11-18T03:32:43;100640.27;;;8.20;76.45
79174;BME280;68599;49.142;9.124;2023-11-18T03:35:10;100632.37;;;8.20;76.53
79174;BME280;68599;49.142;9.124;2023-11-18T03:37:39;100633.48;;;8.24;76.45
79174;BME280;68599;49.142;9.124;2023-11-18T03:40:11;100639.59;;;8.23;76.39
79174;BME280;68599;49.142;9.124;2023-11-18T03:42:38;100642.61;;;8.21;76.23
79174;BME280;68599;49.142;9.124;2023-11-18T03:45:07;100645.09;;;8.17;76.37
79174;BME280;68599;49.142;9.124;2023-11-18T03:47:35;100654.08;;;8.18;76.35
79174;BME280;68599;49.142;9.124;2023-11-18T03:50:02;100651.53;;;8.15;76.34
79174;BME280;68599;49.142;9.124;2023-11-18T03:52:29;100645.92;;;8.10;76.53
79174;BME280;68599;49.142;9.124;2023-11-18T03:54:56;100646.85;;;8.11;76.47
79174;BME280;68599;49.142;9.124;2023-11-18T03:57:22;100647.91;;;8.11;76.47
79174;BME280;68599;49.142;9.124;2023-11-18T03:59:49;100649.52;;;8.09;76.73
79174;BME280;68599;49.142;9.124;2023-11-18T04:02:17;100650.13;;;8.18;76.49
79174;BME280;68599;49.142;9.124;2023-11-18T04:04:44;100649.77;;;8.16;76.39
79174;BME280;68599;49.142;9.124;2023-11-18T04:07:10;100647.42;;;8.16;76.53
79174;BME280;68599;49.142;9.124;2023-11-18T04:09:37;100642.91;;;8.14;76.40
79174;BME280;68599;49.142;9.124;2023-11-18T04:12:04;100643.78;;;8.10;76.57
79174;BME280;68599;49.142;9.124;2023-11-18T04:14:31;100650.43;;;8.10;76.52
79174;BME280;68599;49.142;9.124;2023-11-18T04:16:58;100653.27;;;8.08;76.56
79174;BME280;68599;49.142;9.124;2023-11-18T04:19:25;100653.58;;;8.04;76.47
79174;BME280;68599;49.142;9.124;2023-11-18T04:21:52;100652.48;;;8.02;76.41
79174;BME280;68599;49.142;9.124;2023-11-18T04:24:19;100644.91;;;7.97;76.67
79174;BME280;68599;49.142;9.124;2023-11-18T04:26:46;100639.30;;;7.92;76.61
79174;BME280;68599;49.142;9.124;2023-11-18T04:29:15;100639.48;;;7.94;76.58
79174;BME280;68599;49.142;9.124;2023-11-18T04:31:41;100645.95;;;7.93;76.30
79174;BME280;68599;49.142;9.124;2023-11-18T04:34:08;100646.32;;;7.94;76.08
79174;BME280;68599;49.142;9.124;2023-11-18T04:36:34;100651.77;;;7.82;76.46
79174;BME280;68599;49.142;9.124;2023-11-18T04:39:01;100647.98;;;7.80;76.46
79174;BME280;68599;49.142;9.124;2023-11-18T04:41:30;100641.84;;;7.77;76.58
79174;BME280;68599;49.142;9.124;2023-11-18T04:43:58;100643.98;;;7.76;76.59
79174;BME280;68599;49.142;9.124;2023-11-18T04:46:24;100641.23;;;7.69;76.68
79174;BME280;68599;49.142;9.124;2023-11-18T04:48:51;100641.36;;;7.64;76.88
79174;BME280;68599;49.142;9.124;2023-11-18T04:51:20;100640.08;;;7.63;76.96
79174;BME280;68599;49.142;9.124;2023-11-18T04:53:48;100633.30;;;7.65;76.83
79174;BME280;68599;49.142;9.124;2023-11-18T04:56:15;100633.84;;;7.67;76.66
79174;BME280;68599;49.142;9.124;2023-11-18T04:58:45;100634.56;;;7.67;76.54
79174;BME280;68599;49.142;9.124;2023-11-18T05:01:14;100642.94;;;7.62;76.43
79174;BME280;68599;49.142;9.124;2023-11-18T05:03:41;100643.94;;;7.55;76.31
79174;BME280;68599;49.142;9.124;2023-11-18T05:06:08;100640.21;;;7.42;76.66
79174;BME280;68599;49.142;9.124;2023-11-18T05:08:35;100636.52;;;7.34;76.92
79174;BME280;68599;49.142;9.124;2023-11-18T05:11:02;100639.95;;;7.35;76.93
79174;BME280;68599;49.142;9.124;2023-11-18T05:13:31;100645.20;;;7.40;76.58
79174;BME280;68599;49.142;9.124;2023-11-18T05:16:00;100645.02;;;7.40;76.64
79174;BME280;68599;49.142;9.124;2023-11-18T05:18:27;100647.66;;;7.35;76.88
79174;BME280;68599;49.142;9.124;2023-11-18T05:20:56;100652.29;;;7.32;76.82
79174;BME280;68599;49.142;9.124;2023-11-18T05:23:23;100650.80;;;7.28;77.19
79174;BME280;68599;49.142;9.124;2023-11-18T05:25:50;100652.02;;;7.26;77.42
79174;BME280;68599;49.142;9.124;2023-11-18T05:28:17;100652.81;;;7.32;77.23
79174;BME280;68599;49.142;9.124;2023-11-18T05:30:44;100653.09;;;7.40;77.09
79174;BME280;68599;49.142;9.124;2023-11-18T05:33:11;100651.15;;;7.43;77.04
79174;BME280;68599;49.142;9.124;2023-11-18T05:35:45;100647.13;;;7.36;77.36
79174;BME280;68599;49.142;9.124;2023-11-18T05:38:18;100644.23;;;7.34;77.24
79174;BME280;68599;49.142;9.124;2023-11-18T05:40:48;100645.48;;;7.33;77.56
79174;BME280;68599;49.142;9.124;2023-11-18T05:43:24;100646.66;;;7.27;77.84
79174;BME280;68599;49.142;9.124;2023-11-18T05:45:53;100644.02;;;7.16;78.31
79174;BME280;68599;49.142;9.124;2023-11-18T05:48:39;100646.21;;;7.20;77.62
79174;BME280;68599;49.142;9.124;2023-11-18T05:51:10;100649.63;;;7.20;77.90
79174;BME280;68599;49.142;9.124;2023-11-18T05:53:39;100650.85;;;7.18;78.06
79174;BME280;68599;49.142;9.124;2023-11-18T05:56:07;100641.91;;;7.20;77.99
79174;BME280;68599;49.142;9.124;2023-11-18T05:58:34;100634.03;;;7.22;77.68
79174;BME280;68599;49.142;9.124;2023-11-18T06:01:01;100633.42;;;7.16;78.34
79174;BME280;68599;49.142;9.124;2023-11-18T06:03:28;100632.04;;;7.18;78.28
79174;BME280;68599;49.142;9.124;2023-11-18T06:05:55;100629.77;;;7.24;77.89
79174;BME280;68599;49.142;9.124;2023-11-18T06:08:22;100622.25;;;7.25;77.79
79174;BME280;68599;49.142;9.124;2023-11-18T06:10:50;100611.02;;;7.31;77.84
79174;BME280;68599;49.142;9.124;2023-11-18T06:13:23;100611.10;;;7.37;77.70
79174;BME280;68599;49.142;9.124;2023-11-18T06:15:50;100618.35;;;7.44;77.70
79174;BME280;68599;49.142;9.124;2023-11-18T06:18:18;100618.55;;;7.46;77.50
79174;BME280;68599;49.142;9.124;2023-11-18T06:20:45;100625.08;;;7.51;77.38
79174;BME280;68599;49.142;9.124;2023-11-18T06:23:12;100626.54;;;7.56;77.18
79174;BME280;68599;49.142;9.124;2023-11-18T06:25:41;100628.77;;;7.47;77.45
79174;BME280;68599;49.142;9.124;2023-11-18T06:28:08;100632.51;;;7.28;78.06
79174;BME280;68599;49.142;9.124;2023-11-18T06:30:35;100639.10;;;7.24;77.82
79174;BME280;68599;49.142;9.124;2023-11-18T06:33:02;100640.42;;;7.15;78.15
79174;BME280;68599;49.142;9.124;2023-11-18T06:35:29;100649.69;;;7.12;78.06
79174;BME280;68599;49.142;9.124;2023-11-18T06:37:56;100657.72;;;7.09;78.09
79174;BME280;68599;49.142;9.124;2023-11-18T06:40:25;100661.40;;;7.03;78.66
79174;BME280;68599;49.142;9.124;2023-11-18T06:42:53;100664.97;;;7.01;78.58
79174;BME280;68599;49.142;9.124;2023-11-18T06:45:27;100662.15;;;7.05;78.71
79174;BME280;68599;49.142;9.124;2023-11-18T06:47:54;100662.25;;;6.86;79.37
79174;BME280;68599;49.142;9.124;2023-11-18T06:50:21;100662.25;;;6.86;79.52
79174;BME280;68599;49.142;9.124;2023-11-18T06:52:50;100661.20;;;6.88;79.11
79174;BME280;68599;49.142;9.124;2023-11-18T06:55:17;100656.19;;;6.89;79.02
79174;BME280;68599;49.142;9.124;2023-11-18T06:57:44;100654.63;;;6.92;78.57
79174;BME280;68599;49.142;9.124;2023-11-18T07:00:12;100649.50;;;6.84;78.68
79174;BME280;68599;49.142;9.124;2023-11-18T07:02:40;100650.73;;;6.71;79.21
79174;BME280;68599;49.142;9.124;2023-11-18T07:05:09;100651.88;;;6.75;78.71
79174;BME280;68599;49.142;9.124;2023-11-18T07:07:36;100659.81;;;6.79;78.53
79174;BME280;68599;49.142;9.124;2023-11-18T07:10:04;100666.88;;;6.84;78.57
79174;BME280;68599;49.142;9.124;2023-11-18T07:12:34;100671.42;;;6.89;78.40
79174;BME280;68599;49.142;9.124;2023-11-18T07:15:04;100668.56;;;7.03;77.48
79174;BME280;68599;49.142;9.124;2023-11-18T07:17:31;100669.36;;;7.08;77.10
79174;BME280;68599;49.142;9.124;2023-11-18T07:20:01;100673.73;;;7.14;76.86
79174;BME280;68599;49.142;9.124;2023-11-18T07:22:28;100673.35;;;7.25;76.48
79174;BME280;68599;49.142;9.124;2023-11-18T07:24:55;100671.02;;;7.42;75.84
79174;BME280;68599;49.142;9.124;2023-11-18T07:27:25;100670.85;;;7.56;75.21
79174;BME280;68599;49.142;9.124;2023-11-18T07:29:52;100669.59;;;7.71;74.75
79174;BME280;68599;49.142;9.124;2023-11-18T07:32:19;100664.38;;;7.87;74.27
79174;BME280;68599;49.142;9.124;2023-11-18T07:34:46;100670.65;;;8.05;73.66
79174;BME280;68599;49.142;9.124;2023-11-18T07:37:12;100672.67;;;8.10;73.25
79174;BME280;68599;49.142;9.124;2023-11-18T07:39:39;100666.96;;;7.95;73.27
79174;BME280;68599;49.142;9.124;2023-11-18T07:42:15;100653.95;;;8.04;73.11
79174;BME280;68599;49.142;9.124;2023-11-18T07:44:42;100647.58;;;7.94;72.93
79174;BME280;68599;49.142;9.124;2023-11-18T07:47:09;100639.04;;;8.02;73.08
79174;BME280;68599;49.142;9.124;2023-11-18T07:49:36;100641.48;;;8.35;72.34
79174;BME280;68599;49.142;9.124;2023-11-18T07:52:03;100642.35;;;8.52;70.89
79174;BME280;68599;49.142;9.124;2023-11-18T07:54:30;100645.70;;;8.69;70.63
79174;BME280;68599;49.142;9.124;2023-11-18T07:56:57;100654.52;;;9.00;70.34
79174;BME280;68599;49.142;9.124;2023-11-18T07:59:23;100654.04;;;9.10;68.98
79174;BME280;68599;49.142;9.124;2023-11-18T08:01:50;100660.66;;;9.04;68.52
79174;BME280;68599;49.142;9.124;2023-11-18T08:04:17;100668.02;;;9.01;67.50
79174;BME280;68599;49.142;9.124;2023-11-18T08:06:49;100669.66;;;8.77;67.50
79174;BME280;68599;49.142;9.124;2023-11-18T08:09:15;100655.98;;;8.52;67.94
79174;BME280;68599;49.142;9.124;2023-11-18T08:11:49;100647.67;;;8.42;68.61
79174;BME280;68599;49.142;9.124;2023-11-18T08:14:15;100645.30;;;8.64;68.79
79174;BME280;68599;49.142;9.124;2023-11-18T08:16:42;100651.41;;;8.64;68.24
79174;BME280;68599;49.142;9.124;2023-11-18T08:19:09;100649.45;;;8.41;68.93
79174;BME280;68599;49.142;9.124;2023-11-18T08:21:36;100649.98;;;8.41;69.70
79174;BME280;68599;49.142;9.124;2023-11-18T08:24:07;100655.26;;;8.48;69.59
79174;BME280;68599;49.142;9.124;2023-11-18T08:26:35;100655.47;;;8.32;69.27
79174;BME280;68599;49.142;9.124;2023-11-18T08:29:02;100654.61;;;8.16;69.96
79174;BME280;68599;49.142;9.124;2023-11-18T08:31:29;100649.00;;;8.12;70.27
79174;BME280;68599;49.142;9.124;2023-11-18T08:33:56;100649.33;;;7.89;70.61
79174;BME280;68599;49.142;9.124;2023-11-18T08:36:23;100662.00;;;8.02;69.83
79174;BME280;68599;49.142;9.124;2023-11-18T08:38:49;100653.78;;;8.05;70.13
79174;BME280;68599;49.142;9.124;2023-11-18T08:41:16;100651.19;;;8.17;70.21
79174;BME280;68599;49.142;9.124;2023-11-18T08:43:43;100654.30;;;8.24;70.16
79174;BME280;68599;49.142;9.124;2023-11-18T08:46:09;100658.62;;;8.23;69.79
79174;BME280;68599;49.142;9.124;2023-11-18T08:48:36;100664.70;;;8.22;68.96
79174;BME280;68599;49.142;9.124;2023-11-18T08:51:04;100660.60;;;8.24;68.91
79174;BME280;68599;49.142;9.124;2023-11-18T08:53:35;100655.23;;;8.46;68.12
79174;BME280;68599;49.142;9.124;2023-11-18T08:56:11;100649.04;;;8.56;67.80
79174;BME280;68599;49.142;9.124;2023-11-18T08:58:44;100642.89;;;9.13;67.07
79174;BME280;68599;49.142;9.124;2023-11-18T09:01:16;100639.20;;;10.08;65.21
79174;BME280;68599;49.142;9.124;2023-11-18T09:03:43;100627.52;;;11.22;63.35
79174;BME280;68599;49.142;9.124;2023-11-18T09:06:10;100629.30;;;11.98;57.54
79174;BME280;68599;49.142;9.124;2023-11-18T09:08:54;100639.45;;;11.96;56.83
79174;BME280;68599;49.142;9.124;2023-11-18T09:11:23;100639.39;;;12.47;56.19
79174;BME280;68599;49.142;9.124;2023-11-18T09:13:53;100637.60;;;13.73;54.34
79174;BME280;68599;49.142;9.124;2023-11-18T09:16:21;100632.64;;;14.50;50.15
79174;BME280;68599;49.142;9.124;2023-11-18T09:18:59;100625.98;;;14.13;49.51
79174;BME280;68599;49.142;9.124;2023-11-18T09:21:29;100627.45;;;14.11;50.14
79174;BME280;68599;49.142;9.124;2023-11-18T09:23:56;100628.47;;;13.37;51.13
79174;BME280;68599;49.142;9.124;2023-11-18T09:26:23;100626.16;;;13.37;51.82
79174;BME280;68599;49.142;9.124;2023-11-18T09:28:52;100624.48;;;14.04;50.73
79174;BME280;68599;49.142;9.124;2023-11-18T09:31:20;100625.77;;;13.36;49.72
79174;BME280;68599;49.142;9.124;2023-11-18T09:33:48;100621.78;;;13.25;51.18
79174;BME280;68599;49.142;9.124;2023-11-18T09:36:25;100628.36;;;13.17;51.41
79174;BME280;68599;49.142;9.124;2023-11-18T09:38:55;100630.23;;;12.14;53.66
79174;BME280;68599;49.142;9.124;2023-11-18T09:41:23;100627.73;;;11.58;55.70
79174;BME280;68599;49.142;9.124;2023-11-18T09:43:54;100630.33;;;11.43;56.34
79174;BME280;68599;49.142;9.124;2023-11-18T09:46:25;100634.19;;;11.27;57.18
79174;BME280;68599;49.142;9.124;2023-11-18T09:51:43;100630.91;;;10.74;58.35
79174;BME280;68599;49.142;9.124;2023-11-18T09:54:23;100630.55;;;10.76;58.77
79174;BME280;68599;49.142;9.124;2023-11-18T09:57:32;100630.17;;;10.81;58.84
79174;BME280;68599;49.142;9.124;2023-11-18T10:00:06;100625.05;;;11.52;57.71
79174;BME280;68599;49.142;9.124;2023-11-18T10:02:54;100625.66;;;12.02;56.13
79174;BME280;68599;49.142;9.124;2023-11-18T10:05:23;100621.45;;;11.83;55.91
79174;BME280;68599;49.142;9.124;2023-11-18T10:07:54;100623.08;;;11.45;56.40
79174;BME280;68599;49.142;9.124;2023-11-18T10:10:21;100626.86;;;11.04;57.68
79174;BME280;68599;49.142;9.124;2023-11-18T10:12:49;100628.67;;;11.08;58.02
79174;BME280;68599;49.142;9.124;2023-11-18T10:15:21;100629.10;;;10.75;59.16
79174;BME280;68599;49.142;9.124;2023-11-18T10:17:52;100622.13;;;10.22;60.47
79174;BME280;68599;49.142;9.124;2023-11-18T10:23:15;100620.45;;;9.78;62.26
79174;BME280;68599;49.142;9.124;2023-11-18T10:25:51;100626.88;;;9.61;63.09
79174;BME280;68599;49.142;9.124;2023-11-18T10:28:33;100627.95;;;9.54;64.16
79174;BME280;68599;49.142;9.124;2023-11-18T10:31:03;100629.80;;;9.80;63.57
79174;BME280;68599;49.142;9.124;2023-11-18T10:35:59;100613.23;;;9.78;63.29
79174;BME280;68599;49.142;9.124;2023-11-18T10:38:32;100615.15;;;9.47;64.08
79174;BME280;68599;49.142;9.124;2023-11-18T10:41:03;100623.27;;;9.08;65.33
79174;BME280;68599;49.142;9.124;2023-11-18T10:43:32;100627.38;;;9.01;65.95
79174;BME280;68599;49.142;9.124;2023-11-18T10:46:07;100625.12;;;9.19;65.52
79174;BME280;68599;49.142;9.124;2023-11-18T10:48:47;100622.30;;;9.33;65.46
79174;BME280;68599;49.142;9.124;2023-11-18T10:51:17;100622.82;;;9.28;65.32
79174;BME280;68599;49.142;9.124;2023-11-18T10:53:52;100625.90;;;9.33;65.09
79174;BME280;68599;49.142;9.124;2023-11-18T10:56:25;100627.38;;;9.48;64.71
79174;BME280;68599;49.142;9.124;2023-11-18T10:58:57;100622.89;;;9.45;64.43
79174;BME280;68599;49.142;9.124;2023-11-18T11:01:31;100614.72;;;9.25;65.30
79174;BME280;68599;49.142;9.124;2023-11-18T11:03:59;100617.63;;;9.31;65.36
79174;BME280;68599;49.142;9.124;2023-11-18T11:06:30;100620.66;;;9.27;65.60
79174;BME280;68599;49.142;9.124;2023-11-18T11:08:57;100610.81;;;9.39;64.87
79174;BME280;68599;49.142;9.124;2023-11-18T11:11:39;100608.16;;;9.61;65.12
79174;BME280;68599;49.142;9.124;2023-11-18T11:14:08;100613.80;;;9.97;63.92
79174;BME280;68599;49.142;9.124;2023-11-18T11:16:42;100609.70;;;10.14;63.20
79174;BME280;68599;49.142;9.124;2023-11-18T11:19:38;100601.05;;;10.11;63.21
79174;BME280;68599;49.142;9.124;2023-11-18T11:22:15;100604.10;;;10.04;62.73
79174;BME280;68599;49.142;9.124;2023-11-18T11:27:32;100593.08;;;9.73;64.32
79174;BME280;68599;49.142;9.124;2023-11-18T11:30:14;100585.15;;;9.67;64.84
79174;BME280;68599;49.142;9.124;2023-11-18T11:32:51;100584.98;;;9.83;64.27
79174;BME280;68599;49.142;9.124;2023-11-18T11:35:23;100581.95;;;10.00;64.08
79174;BME280;68599;49.142;9.124;2023-11-18T11:37:52;100573.14;;;10.16;63.75
79174;BME280;68599;49.142;9.124;2023-11-18T11:40:21;100569.19;;;10.23;62.82
79174;BME280;68599;49.142;9.124;2023-11-18T11:42:52;100568.27;;;10.22;62.87
79174;BME280;68599;49.142;9.124;2023-11-18T11:45:25;100563.75;;;9.82;63.92
79174;BME280;68599;49.142;9.124;2023-11-18T11:47:57;100559.08;;;9.98;63.55
79174;BME280;68599;49.142;9.124;2023-11-18T11:50:58;100557.80;;;9.70;64.42
79174;BME280;68599;49.142;9.124;2023-11-18T11:53:29;100555.25;;;9.55;64.48
79174;BME280;68599;49.142;9.124;2023-11-18T11:55:57;100551.31;;;9.62;65.11
79174;BME280;68599;49.142;9.124;2023-11-18T11:58:36;100542.67;;;9.62;64.44
79174;BME280;68599;49.142;9.124;2023-11-18T12:01:22;100536.39;;;9.76;64.73
79174;BME280;68599;49.142;9.124;2023-11-18T12:03:56;100534.41;;;9.88;64.39
79174;BME280;68599;49.142;9.124;2023-11-18T12:06:26;100525.95;;;9.92;64.17
79174;BME280;68599;49.142;9.124;2023-11-18T12:08:54;100517.12;;;9.80;64.44
79174;BME280;68599;49.142;9.124;2023-11-18T12:11:22;100508.85;;;9.82;64.69
79174;BME280;68599;49.142;9.124;2023-11-18T12:14:08;100498.95;;;9.66;65.04
79174;BME280;68599;49.142;9.124;2023-11-18T12:19:31;100491.00;;;9.29;66.49
79174;BME280;68599;49.142;9.124;2023-11-18T12:22:19;100489.73;;;9.22;67.28
79174;BME280;68599;49.142;9.124;2023-11-18T12:33:02;100472.46;;;9.26;68.68
79174;BME280;68599;49.142;9.124;2023-11-18T12:35:34;100469.39;;;9.13;68.84
79174;BME280;68599;49.142;9.124;2023-11-18T12:41:02;100469.56;;;9.11;68.21
79174;BME280;68599;49.142;9.124;2023-11-18T12:43:46;100470.30;;;9.17;68.04
79174;BME280;68599;49.142;9.124;2023-11-18T12:46:43;100464.52;;;9.03;68.03
79174;BME280;68599;49.142;9.124;2023-11-18T12:49:17;100460.02;;;9.04;68.35
79174;BME280;68599;49.142;9.124;2023-11-18T12:51:47;100456.28;;;9.21;68.09
79174;BME280;68599;49.142;9.124;2023-11-18T12:54:15;100456.10;;;9.24;67.81
79174;BME280;68599;49.142;9.124;2023-11-18T12:56:47;100445.69;;;9.37;67.62
79174;BME280;68599;49.142;9.124;2023-11-18T12:59:16;100447.13;;;9.37;67.67
79174;BME280;68599;49.142;9.124;2023-11-18T13:01:46;100446.58;;;9.24;67.63
79174;BME280;68599;49.142;9.124;2023-11-18T13:04:21;100440.80;;;9.15;67.92
79174;BME280;68599;49.142;9.124;2023-11-18T13:06:48;100441.88;;;9.04;68.18
79174;BME280;68599;49.142;9.124;2023-11-18T13:09:18;100441.33;;;9.05;67.94
79174;BME280;68599;49.142;9.124;2023-11-18T13:11:59;100446.73;;;9.08;67.77
79174;BME280;68599;49.142;9.124;2023-11-18T13:14:34;100438.80;;;8.95;68.35
79174;BME280;68599;49.142;9.124;2023-11-18T13:17:05;100422.41;;;8.85;69.18
79174;BME280;68599;49.142;9.124;2023-11-18T13:19:35;100419.19;;;8.86;69.07
79174;BME280;68599;49.142;9.124;2023-11-18T13:22:07;100417.39;;;8.85;69.03
79174;BME280;68599;49.142;9.124;2023-11-18T13:24:43;100410.91;;;8.85;68.85
79174;BME280;68599;49.142;9.124;2023-11-18T13:27:16;100400.29;;;8.75;69.03
79174;BME280;68599;49.142;9.124;2023-11-18T13:29:47;100395.98;;;8.67;69.36
79174;BME280;68599;49.142;9.124;2023-11-18T13:32:19;100389.33;;;8.70;69.27
79174;BME280;68599;49.142;9.124;2023-11-18T13:34:52;100382.67;;;8.69;69.33
79174;BME280;68599;49.142;9.124;2023-11-18T13:37:19;100372.09;;;8.78;69.07
79174;BME280;68599;49.142;9.124;2023-11-18T13:39:54;100373.54;;;8.86;69.10